Time;durP1;ratioP1;P1;durP2;ratioP2;P2;SDS_P1;SDS_P2;PMS_P1;PMS_P2;Temp;Humidity;BMP_temperature;BMP_pressure;BME280_temperature;BME280_humidity;BME280_pressure;Samples;Min_cycle;Max_cycle;Signal;HPM_P1;HPM_P2
2021/12/13 00:01:12;;;;;;;;;;;;;;;9.38;100.00;102518.47;5095098;28;19962;-35
2021/12/13 00:03:40;;;;;;;;;;;;;;;9.37;100.00;102512.22;5013248;28;19955;-35
2021/12/13 00:06:07;;;;;;;;;;;;;;;9.36;100.00;102509.69;5013278;28;20324;-35
2021/12/13 00:08:36;;;;;;;;;;;;;;;9.36;100.00;102515.94;5012828;28;19913;-35
2021/12/13 00:11:09;;;;;;;;;;;;;;;9.36;100.00;102505.13;5012871;28;19917;-35
2021/12/13 00:13:37;;;;;;;;;;;;;;;9.35;100.00;102503.47;5012562;28;20457;-35
2021/12/13 00:16:06;;;;;;;;;;;;;;;9.34;100.00;102509.88;5012818;28;19913;-35
2021/12/13 00:18:33;;;;;;;;;;;;;;;9.33;100.00;102510.91;5012513;28;20076;-35
2021/12/13 00:21:07;;;;;;;;;;;;;;;9.34;100.00;102514.44;5012581;28;20297;-36
2021/12/13 00:23:35;;;;;;;;;;;;;;;9.33;100.00;102510.91;5012651;28;19943;-36
2021/12/13 00:26:01;;;;;;;;;;;;;;;9.32;100.00;102509.25;5013036;28;19937;-35
2021/12/13 00:28:37;;;;;;;;;;;;;;;9.30;100.00;102505.88;5012285;28;19919;-36
2021/12/13 00:31:17;;;;;;;;;;;;;;;9.29;100.00;102515.81;5012614;28;19920;-36
2021/12/13 00:33:55;;;;;;;;;;;;;;;9.28;100.00;102519.56;5012364;28;20012;-36
2021/12/13 00:36:42;;;;;;;;;;;;;;;9.26;100.00;102521.59;5012987;28;19920;-35
2021/12/13 00:39:10;;;;;;;;;;;;;;;9.26;100.00;102518.03;5024294;28;20336;-35
2021/12/13 00:41:37;;;;;;;;;;;;;;;9.26;100.00;102516.19;5094040;28;20317;-35
2021/12/13 00:44:04;;;;;;;;;;;;;;;9.26;100.00;102531.53;5094855;28;19920;-35
2021/12/13 00:46:32;;;;;;;;;;;;;;;9.25;100.00;102530.69;5094139;28;19912;-35
2021/12/13 00:48:59;;;;;;;;;;;;;;;9.24;100.00;102530.91;5094982;28;19912;-35
2021/12/13 00:51:30;;;;;;;;;;;;;;;9.24;100.00;102534.44;5094171;28;19934;-36
2021/12/13 00:53:57;;;;;;;;;;;;;;;9.23;100.00;102540.03;5094904;28;19923;-35
2021/12/13 00:56:41;;;;;;;;;;;;;;;9.22;100.00;102531.09;5093648;28;19966;-35
2021/12/13 00:59:06;;;;;;;;;;;;;;;9.24;100.00;102533.59;5094392;28;19990;-35
2021/12/13 01:01:32;;;;;;;;;;;;;;;9.22;100.00;102538.31;5093899;28;20026;-35
2021/12/13 01:03:57;;;;;;;;;;;;;;;9.22;100.00;102532.91;5094311;28;19919;-35
2021/12/13 01:06:41;;;;;;;;;;;;;;;9.21;100.00;102532.09;5094027;28;19911;-35
2021/12/13 01:09:41;;;;;;;;;;;;;;;9.21;100.00;102542.03;5094003;28;19912;-35
2021/12/13 01:12:12;;;;;;;;;;;;;;;9.19;100.00;102536.00;5094537;28;20336;-35
2021/12/13 01:14:44;;;;;;;;;;;;;;;9.17;100.00;102533.47;5094387;28;19912;-35
2021/12/13 01:17:28;;;;;;;;;;;;;;;9.17;100.00;102535.31;5093723;28;19912;-35
2021/12/13 01:20:07;;;;;;;;;;;;;;;9.15;100.00;102537.38;5093634;28;20264;-35
2021/12/13 01:25:21;;;;;;;;;;;;;;;9.10;100.00;102543.31;5094276;28;19912;-35
2021/12/13 01:27:59;;;;;;;;;;;;;;;9.09;100.00;102544.34;5093924;28;19912;-35
2021/12/13 01:30:33;;;;;;;;;;;;;;;9.08;100.00;102549.88;5093411;28;20316;-35
2021/12/13 01:32:59;;;;;;;;;;;;;;;9.06;100.00;102547.38;5093528;28;19961;-35
2021/12/13 01:35:26;;;;;;;;;;;;;;;9.04;100.00;102549.44;5093893;28;19911;-35
2021/12/13 01:37:54;;;;;;;;;;;;;;;9.03;100.00;102547.75;5093589;28;19920;-36
2021/12/13 01:40:23;;;;;;;;;;;;;;;9.03;100.00;102558.56;5093888;28;20432;-36
2021/12/13 01:42:54;;;;;;;;;;;;;;;9.01;100.00;102550.63;5093904;28;19919;-36
2021/12/13 01:45:19;;;;;;;;;;;;;;;9.00;100.00;102554.34;5094070;28;19996;-36
2021/12/13 01:47:45;;;;;;;;;;;;;;;8.97;100.00;102554.69;5094221;28;19912;-36
2021/12/13 01:50:19;;;;;;;;;;;;;;;8.96;100.00;102569.19;5093150;28;20391;-36
2021/12/13 01:52:46;;;;;;;;;;;;;;;8.97;100.00;102567.34;5093309;28;19918;-36
2021/12/13 01:55:14;;;;;;;;;;;;;;;8.97;100.00;102565.47;5093046;28;20398;-36
2021/12/13 01:57:53;;;;;;;;;;;;;;;8.97;100.00;102565.47;5093392;28;20264;-36
2021/12/13 02:00:32;;;;;;;;;;;;;;;8.97;100.00;102568.19;5093524;28;19920;-36
2021/12/13 02:02:57;;;;;;;;;;;;;;;8.96;100.00;102568.38;5094052;28;19919;-36
2021/12/13 02:05:26;;;;;;;;;;;;;;;8.95;100.00;102567.53;5093658;28;20348;-36
2021/12/13 02:07:51;;;;;;;;;;;;;;;8.96;100.00;102576.47;5095039;28;19916;-36
2021/12/13 02:10:41;;;;;;;;;;;;;;;8.94;100.00;102582.03;5096980;28;19919;-36
2021/12/13 02:13:20;;;;;;;;;;;;;;;8.94;100.00;102571.25;5015527;28;19963;-36
2021/12/13 02:18:33;;;;;;;;;;;;;;;8.93;100.00;102572.28;5015779;28;19956;-36
2021/12/13 02:21:05;;;;;;;;;;;;;;;8.91;100.00;102581.56;5014662;28;19913;-36
2021/12/13 02:23:32;;;;;;;;;;;;;;;8.91;100.00;102568.06;5014652;28;19917;-36
2021/12/13 02:25:58;;;;;;;;;;;;;;;8.90;100.00;102572.63;5015057;28;19956;-36
2021/12/13 02:28:26;;;;;;;;;;;;;;;8.91;100.00;102562.66;5014534;28;20052;-36
2021/12/13 02:31:00;;;;;;;;;;;;;;;8.89;100.00;102562.00;5015129;28;19924;-36
2021/12/13 02:33:39;;;;;;;;;;;;;;;8.89;100.00;102562.00;5014715;28;19914;-36
2021/12/13 02:36:07;;;;;;;;;;;;;;;8.88;100.00;102554.91;5014819;28;19964;-36
2021/12/13 02:38:32;;;;;;;;;;;;;;;8.87;100.00;102561.34;5014818;28;19913;-36
2021/12/13 02:40:58;;;;;;;;;;;;;;;8.86;100.00;102555.09;5014523;28;19913;-36
2021/12/13 02:43:25;;;;;;;;;;;;;;;8.85;100.00;102561.53;5014567;28;19913;-36
2021/12/13 02:45:53;;;;;;;;;;;;;;;8.86;100.00;102554.28;5014530;28;19928;-36
2021/12/13 02:48:21;;;;;;;;;;;;;;;8.85;100.00;102553.44;5014447;28;19963;-36
2021/12/13 02:50:53;;;;;;;;;;;;;;;8.83;100.00;102568.94;5079140;28;20295;-36
2021/12/13 02:53:20;;;;;;;;;;;;;;;8.84;100.00;102570.63;5096044;28;19912;-36
2021/12/13 02:55:45;;;;;;;;;;;;;;;8.84;100.00;102570.63;5096976;28;19919;-35
2021/12/13 02:58:14;;;;;;;;;;;;;;;8.83;100.00;102574.31;5096666;28;19920;-36
2021/12/13 03:00:46;;;;;;;;;;;;;;;8.82;100.00;102572.66;5096384;28;20012;-36
2021/12/13 03:03:14;;;;;;;;;;;;;;;8.82;100.00;102561.88;5096223;28;19923;-36
2021/12/13 03:05:41;;;;;;;;;;;;;;;8.81;100.00;102562.88;5096222;28;20004;-36
2021/12/13 03:08:10;;;;;;;;;;;;;;;8.80;100.00;102557.69;5096645;28;19912;-36
2021/12/13 03:10:39;;;;;;;;;;;;;;;8.79;100.00;102566.78;5096028;28;19912;-36
2021/12/13 03:13:04;;;;;;;;;;;;;;;8.79;100.00;102561.41;5096135;28;19955;-36
2021/12/13 03:15:31;;;;;;;;;;;;;;;8.77;100.00;102565.09;5095777;28;19959;-36
2021/12/13 03:18:06;;;;;;;;;;;;;;;8.74;100.00;102564.63;5095552;28;19912;-36
2021/12/13 03:20:38;;;;;;;;;;;;;;;8.73;100.00;102569.16;5095650;28;19947;-36
2021/12/13 03:23:11;;;;;;;;;;;;;;;8.74;100.00;102572.72;5096103;28;20245;-36
2021/12/13 03:25:38;;;;;;;;;;;;;;;8.72;100.00;102572.03;5096538;28;19912;-36
2021/12/13 03:28:17;;;;;;;;;;;;;;;8.72;100.00;102580.13;5095787;28;19911;-36
2021/12/13 03:30:48;;;;;;;;;;;;;;;8.73;100.00;102573.72;5096264;28;19947;-36
2021/12/13 03:33:15;;;;;;;;;;;;;;;8.71;100.00;102578.47;5095575;28;19932;-36
2021/12/13 03:35:50;;;;;;;;;;;;;;;8.71;100.00;102578.47;5095443;28;20394;-35
2021/12/13 03:38:17;;;;;;;;;;;;;;;8.70;100.00;102576.78;5095416;28;19911;-36
2021/12/13 03:40:43;;;;;;;;;;;;;;;8.70;100.00;102576.78;5095467;28;19957;-35
2021/12/13 03:43:15;;;;;;;;;;;;;;;8.69;100.00;102583.19;5095437;28;20352;-35
2021/12/13 03:45:43;;;;;;;;;;;;;;;8.70;100.00;102571.38;5095405;28;19999;-35
2021/12/13 03:48:09;;;;;;;;;;;;;;;8.70;100.00;102569.53;5095770;28;19912;-36
2021/12/13 03:50:37;;;;;;;;;;;;;;;8.72;100.00;102572.03;5095870;28;19912;-35
2021/12/13 03:53:06;;;;;;;;;;;;;;;8.70;100.00;102580.31;5077354;28;19926;-35
2021/12/13 03:55:32;;;;;;;;;;;;;;;8.72;100.00;102580.13;5095396;28;19996;-35
2021/12/13 03:57:59;;;;;;;;;;;;;;;8.69;100.00;102581.34;5095230;28;19958;-35
2021/12/13 04:00:26;;;;;;;;;;;;;;;8.67;100.00;102583.34;5094744;28;19942;-35
2021/12/13 04:02:55;;;;;;;;;;;;;;;8.67;100.00;102575.25;5095461;28;19970;-35
2021/12/13 04:05:22;;;;;;;;;;;;;;;8.66;100.00;102573.59;5095027;28;19916;-35
2021/12/13 04:07:50;;;;;;;;;;;;;;;8.68;100.00;102581.50;5094619;28;19968;-35
2021/12/13 04:10:20;;;;;;;;;;;;;;;8.65;100.00;102580.00;5095376;28;19912;-35
2021/12/13 04:12:50;;;;;;;;;;;;;;;8.63;100.00;102576.63;5095054;28;20367;-35
2021/12/13 04:15:15;;;;;;;;;;;;;;;8.65;100.00;102587.25;5095034;28;19912;-35
2021/12/13 04:17:55;;;;;;;;;;;;;;;8.63;100.00;102578.50;5094890;28;20364;-35
2021/12/13 04:20:23;;;;;;;;;;;;;;;8.64;100.00;102582.88;5094846;28;19915;-36
2021/12/13 04:22:51;;;;;;;;;;;;;;;8.63;100.00;102584.72;5094568;28;19962;-35
2021/12/13 04:25:19;;;;;;;;;;;;;;;8.64;100.00;102585.59;5094373;28;19911;-35
2021/12/13 04:27:48;;;;;;;;;;;;;;;8.61;100.00;102584.06;5094760;28;20406;-35
2021/12/13 04:30:16;;;;;;;;;;;;;;;8.60;100.00;102589.66;5095153;28;19916;-35
2021/12/13 04:32:44;;;;;;;;;;;;;;;8.58;100.00;102584.41;5094474;28;20261;-35
2021/12/13 04:35:11;;;;;;;;;;;;;;;8.58;100.00;102588.97;5094428;28;19939;-35
2021/12/13 04:37:38;;;;;;;;;;;;;;;8.58;100.00;102597.88;5094655;28;19912;-35
2021/12/13 04:40:10;;;;;;;;;;;;;;;8.57;100.00;102585.44;5094322;28;19918;-35
2021/12/13 04:42:35;;;;;;;;;;;;;;;8.59;100.00;102583.41;5093961;28;19916;-35
2021/12/13 04:45:05;;;;;;;;;;;;;;;8.58;100.00;102580.88;5094298;28;19916;-35
2021/12/13 04:47:34;;;;;;;;;;;;;;;8.57;100.00;102581.91;5093917;28;19965;-35
2021/12/13 04:50:03;;;;;;;;;;;;;;;8.56;100.00;102572.97;5094244;28;19919;-35
2021/12/13 04:52:31;;;;;;;;;;;;;;;8.55;100.00;102583.94;5094961;28;19912;-35
2021/12/13 04:54:56;;;;;;;;;;;;;;;8.51;100.00;102581.59;5094409;28;20329;-35
2021/12/13 04:57:22;;;;;;;;;;;;;;;8.51;100.00;102586.13;5093772;28;19923;-35
2021/12/13 04:59:49;;;;;;;;;;;;;;;8.51;100.00;102586.13;5094839;28;19961;-35
2021/12/13 05:02:15;;;;;;;;;;;;;;;8.51;100.00;102578.03;5094466;28;19911;-35
2021/12/13 05:04:40;;;;;;;;;;;;;;;8.49;100.00;102580.94;5094057;28;19938;-35
2021/12/13 05:07:06;;;;;;;;;;;;;;;8.49;100.00;102582.75;5093601;28;19966;-36
2021/12/13 05:09:32;;;;;;;;;;;;;;;8.49;100.00;102583.63;5094130;28;19922;-35
2021/12/13 05:12:13;;;;;;;;;;;;;;;8.51;100.00;102586.97;5093861;28;19912;-35
2021/12/13 05:14:42;;;;;;;;;;;;;;;8.51;100.00;102591.53;5093572;28;19916;-35
2021/12/13 05:17:10;;;;;;;;;;;;;;;8.49;100.00;102589.00;5094270;28;19912;-35
2021/12/13 05:19:37;;;;;;;;;;;;;;;8.50;100.00;102595.25;5093820;28;20368;-35
2021/12/13 05:22:05;;;;;;;;;;;;;;;8.51;100.00;102588.84;5093664;28;19919;-36
2021/12/13 05:24:32;;;;;;;;;;;;;;;8.50;100.00;102589.84;5075631;28;19919;-35
2021/12/13 05:26:57;;;;;;;;;;;;;;;8.49;100.00;102593.53;5093293;28;19912;-35
2021/12/13 05:29:46;;;;;;;;;;;;;;;8.49;100.00;102588.16;5094464;28;19919;-35
2021/12/13 05:32:14;;;;;;;;;;;;;;;8.48;100.00;102598.09;5093947;28;19923;-35
2021/12/13 05:34:43;;;;;;;;;;;;;;;8.50;100.00;102590.69;5093869;28;19995;-35
2021/12/13 05:37:09;;;;;;;;;;;;;;;8.50;100.00;102585.31;5093565;28;19912;-35
2021/12/13 05:39:36;;;;;;;;;;;;;;;8.50;100.00;102584.47;5093450;28;19926;-35
2021/12/13 05:42:09;;;;;;;;;;;;;;;8.49;100.00;102594.41;5094520;28;19978;-35
2021/12/13 05:44:36;;;;;;;;;;;;;;;8.51;100.00;102594.22;5098326;28;19912;-35
2021/12/13 05:47:03;;;;;;;;;;;;;;;8.50;100.00;102589.84;5097730;28;19916;-35
2021/12/13 05:49:32;;;;;;;;;;;;;;;8.49;100.00;102591.72;5098491;28;20267;-35
2021/12/13 05:52:04;;;;;;;;;;;;;;;8.49;100.00;102589.00;5097534;28;19912;-35
2021/12/13 05:54:32;;;;;;;;;;;;;;;8.48;100.00;102594.56;5097789;28;19912;-35
2021/12/13 05:56:59;;;;;;;;;;;;;;;8.50;100.00;102595.25;5097084;28;20015;-35
2021/12/13 05:59:26;;;;;;;;;;;;;;;8.50;100.00;102597.94;5098038;28;19915;-35
2021/12/13 06:01:54;;;;;;;;;;;;;;;8.50;100.00;102601.47;5097211;28;19920;-35
2021/12/13 06:04:22;;;;;;;;;;;;;;;8.48;100.00;102597.25;5097610;28;19916;-35
2021/12/13 06:06:50;;;;;;;;;;;;;;;8.48;100.00;102600.78;5097586;28;19919;-35
2021/12/13 06:09:34;;;;;;;;;;;;;;;8.48;100.00;102600.78;5097592;28;19911;-35
2021/12/13 06:12:05;;;;;;;;;;;;;;;8.47;100.00;102598.28;5097721;28;20356;-35
2021/12/13 06:14:30;;;;;;;;;;;;;;;8.47;100.00;102601.81;5097655;28;19964;-35
2021/12/13 06:17:03;;;;;;;;;;;;;;;8.47;100.00;102607.22;5097054;28;20007;-35
2021/12/13 06:19:34;;;;;;;;;;;;;;;8.47;100.00;102598.28;5097331;28;19912;-35
2021/12/13 06:22:08;;;;;;;;;;;;;;;8.46;100.00;102605.53;5097180;28;19912;-35
2021/12/13 06:24:41;;;;;;;;;;;;;;;8.46;100.00;102597.44;5097013;28;19958;-35
2021/12/13 06:27:25;;;;;;;;;;;;;;;8.48;100.00;102608.88;5096645;28;20315;-35
2021/12/13 06:29:50;;;;;;;;;;;;;;;8.45;100.00;102600.31;5097399;28;19938;-35
2021/12/13 06:32:21;;;;;;;;;;;;;;;8.45;100.00;102609.25;5097302;28;19912;-35
2021/12/13 06:34:47;;;;;;;;;;;;;;;8.47;100.00;102615.28;5096442;28;20065;-35
2021/12/13 06:37:12;;;;;;;;;;;;;;;8.47;100.00;102611.75;5097233;28;19960;-35
2021/12/13 06:39:37;;;;;;;;;;;;;;;8.46;100.00;102619.00;5096399;28;20065;-35
2021/12/13 06:42:06;;;;;;;;;;;;;;;8.44;100.00;102622.88;5096273;28;19919;-35
2021/12/13 06:44:36;;;;;;;;;;;;;;;8.45;100.00;102622.72;5096607;28;19978;-35
2021/12/13 06:47:02;;;;;;;;;;;;;;;8.42;100.00;102627.63;5096601;28;19916;-35
2021/12/13 06:49:27;;;;;;;;;;;;;;;8.41;100.00;102617.84;5096799;28;19918;-35
2021/12/13 06:51:58;;;;;;;;;;;;;;;8.41;100.00;102618.69;5096385;28;19966;-36
2021/12/13 06:54:41;;;;;;;;;;;;;;;8.40;100.00;102625.09;5095667;28;19919;-36
2021/12/13 06:57:15;;;;;;;;;;;;;;;8.38;100.00;102635.19;5096404;28;20248;-36
2021/12/13 06:59:59;;;;;;;;;;;;;;;8.36;100.00;102626.47;5097021;28;19918;-36
2021/12/13 07:02:24;;;;;;;;;;;;;;;8.35;100.00;102632.84;5096583;28;19944;-36
2021/12/13 07:04:52;;;;;;;;;;;;;;;8.36;100.00;102637.25;5096508;28;19912;-36
2021/12/13 07:07:19;;;;;;;;;;;;;;;8.35;100.00;102638.22;5096153;28;20274;-36
2021/12/13 07:10:10;;;;;;;;;;;;;;;8.37;100.00;102640.78;5096658;28;20003;-36
2021/12/13 07:12:43;;;;;;;;;;;;;;;8.39;100.00;102646.81;5092792;28;19918;-36
2021/12/13 07:15:20;;;;;;;;;;;;;;;8.37;100.00;102652.41;5095701;28;20395;-36
2021/12/13 07:17:58;;;;;;;;;;;;;;;8.34;100.00;102644.59;5095845;28;20386;-36
2021/12/13 07:20:24;;;;;;;;;;;;;;;8.37;100.00;102654.25;5095801;28;19912;-36
2021/12/13 07:22:56;;;;;;;;;;;;;;;8.36;100.00;102648.03;5095835;28;19934;-36
2021/12/13 07:25:22;;;;;;;;;;;;;;;8.37;100.00;102656.94;5095812;28;19969;-36
2021/12/13 07:27:49;;;;;;;;;;;;;;;8.37;100.00;102655.09;5095690;28;19955;-36
2021/12/13 07:30:16;;;;;;;;;;;;;;;8.36;100.00;102656.13;5095639;28;19999;-36
2021/12/13 07:32:46;;;;;;;;;;;;;;;8.37;100.00;102655.09;5095937;28;19922;-36
2021/12/13 07:35:22;;;;;;;;;;;;;;;8.38;100.00;102651.38;5095548;28;20010;-35
2021/12/13 07:37:49;;;;;;;;;;;;;;;8.37;100.00;102654.25;5095518;28;20061;-36
2021/12/13 07:40:20;;;;;;;;;;;;;;;8.36;100.00;102653.41;5095049;28;19912;-36
2021/12/13 07:42:51;;;;;;;;;;;;;;;8.36;100.00;102658.81;5095986;28;20316;-36
2021/12/13 07:45:30;;;;;;;;;;;;;;;8.34;100.00;102663.47;5095698;28;19953;-36
2021/12/13 07:47:56;;;;;;;;;;;;;;;8.36;100.00;102671.41;5095285;28;19923;-36
2021/12/13 07:50:22;;;;;;;;;;;;;;;8.36;100.00;102666.91;5095002;28;20007;-36
2021/12/13 07:52:53;;;;;;;;;;;;;;;8.38;100.00;102674.81;5095158;28;20284;-36
2021/12/13 07:55:22;;;;;;;;;;;;;;;8.36;100.00;102680.38;5094909;28;19911;-36
2021/12/13 07:57:48;;;;;;;;;;;;;;;8.36;100.00;102680.38;5095182;28;19956;-36
2021/12/13 08:00:18;;;;;;;;;;;;;;;8.37;100.00;102682.06;5094940;28;19912;-36
2021/12/13 08:02:58;;;;;;;;;;;;;;;8.36;100.00;102674.97;5094951;28;20015;-36
2021/12/13 08:05:26;;;;;;;;;;;;;;;8.35;100.00;102686.75;5095022;28;19912;-36
2021/12/13 08:07:54;;;;;;;;;;;;;;;8.36;100.00;102680.38;5094851;28;19916;-35
2021/12/13 08:10:22;;;;;;;;;;;;;;;8.38;100.00;102674.81;5094991;28;20007;-35
2021/12/13 08:12:49;;;;;;;;;;;;;;;8.36;100.00;102669.59;5095474;28;20002;-36
2021/12/13 08:15:20;;;;;;;;;;;;;;;8.35;100.00;102678.66;5095306;28;19961;-36
2021/12/13 08:17:52;;;;;;;;;;;;;;;8.34;100.00;102679.66;5094605;28;19912;-36
2021/12/13 08:20:28;;;;;;;;;;;;;;;8.37;100.00;102676.66;5094520;28;19920;-36
2021/12/13 08:22:54;;;;;;;;;;;;;;;8.37;100.00;102682.06;5094266;28;20405;-36
2021/12/13 08:25:25;;;;;;;;;;;;;;;8.38;100.00;102683.72;5094272;28;19912;-36
2021/12/13 08:28:03;;;;;;;;;;;;;;;8.39;100.00;102677.31;5077166;28;19976;-36
2021/12/13 08:30:31;;;;;;;;;;;;;;;8.40;100.00;102675.50;5095231;28;20263;-36
2021/12/13 08:32:58;;;;;;;;;;;;;;;8.40;100.00;102672.78;5094035;28;19912;-36
2021/12/13 08:35:23;;;;;;;;;;;;;;;8.41;100.00;102679.84;5094565;28;19982;-36
2021/12/13 08:37:56;;;;;;;;;;;;;;;8.40;100.00;102670.94;5094820;28;19987;-36
2021/12/13 08:40:24;;;;;;;;;;;;;;;8.40;100.00;102673.63;5094124;28;19963;-36
2021/12/13 08:42:50;;;;;;;;;;;;;;;8.41;100.00;102671.78;5094164;28;19912;-35
2021/12/13 08:45:32;;;;;;;;;;;;;;;8.41;100.00;102677.16;5094869;28;19919;-35
2021/12/13 08:48:02;;;;;;;;;;;;;;;8.40;100.00;102687.09;5094488;28;19919;-35
2021/12/13 08:50:32;;;;;;;;;;;;;;;8.40;100.00;102687.09;5094440;28;19916;-35
2021/12/13 08:53:03;;;;;;;;;;;;;;;8.43;100.00;102680.53;5094398;28;19912;-35
2021/12/13 08:55:31;;;;;;;;;;;;;;;8.42;100.00;102685.06;5094140;28;19916;-35
2021/12/13 08:57:59;;;;;;;;;;;;;;;8.40;100.00;102679.03;5093818;28;20343;-35
2021/12/13 09:00:35;;;;;;;;;;;;;;;8.40;100.00;102680.88;5094211;28;19959;-35
2021/12/13 09:03:11;;;;;;;;;;;;;;;8.39;100.00;102680.00;5094633;28;19912;-35
2021/12/13 09:05:39;;;;;;;;;;;;;;;8.43;100.00;102681.34;5093875;28;20324;-35
2021/12/13 09:08:07;;;;;;;;;;;;;;;8.43;100.00;102678.66;5094106;28;19912;-35
2021/12/13 09:10:41;;;;;;;;;;;;;;;8.44;100.00;102683.06;5093905;28;19916;-35
2021/12/13 09:13:07;;;;;;;;;;;;;;;8.45;100.00;102687.44;5093731;28;19915;-36
2021/12/13 09:15:35;;;;;;;;;;;;;;;8.45;100.00;102692.81;5094062;28;19912;-36
2021/12/13 09:18:01;;;;;;;;;;;;;;;8.47;100.00;102703.44;5093390;28;19911;-36
2021/12/13 09:20:29;;;;;;;;;;;;;;;8.47;100.00;102693.47;5093245;28;19962;-36
2021/12/13 09:22:56;;;;;;;;;;;;;;;8.47;100.00;102692.66;5093351;28;19919;-36
2021/12/13 09:25:40;;;;;;;;;;;;;;;8.45;100.00;102700.91;5093806;28;19912;-36
2021/12/13 09:28:09;;;;;;;;;;;;;;;8.48;100.00;102711.34;5093531;28;19957;-36
2021/12/13 09:30:38;;;;;;;;;;;;;;;8.47;100.00;102709.66;5094041;28;19912;-36
2021/12/13 09:33:07;;;;;;;;;;;;;;;8.46;100.00;102713.38;5093341;28;20030;-36
2021/12/13 09:35:32;;;;;;;;;;;;;;;8.48;100.00;102719.44;5094022;28;19912;-36
2021/12/13 09:38:19;;;;;;;;;;;;;;;8.48;100.00;102716.72;5093183;28;20398;-36
2021/12/13 09:40:46;;;;;;;;;;;;;;;8.49;100.00;102728.34;5093165;28;20256;-36
2021/12/13 09:43:11;;;;;;;;;;;;;;;8.49;100.00;102736.44;5093108;28;20000;-36
2021/12/13 09:45:40;;;;;;;;;;;;;;;8.47;100.00;102731.22;5093209;28;19970;-36
2021/12/13 09:48:16;;;;;;;;;;;;;;;8.49;100.00;102748.09;5093322;28;19920;-36
2021/12/13 09:50:44;;;;;;;;;;;;;;;8.50;100.00;102746.25;5093343;28;19912;-36
2021/12/13 09:53:10;;;;;;;;;;;;;;;8.51;100.00;102762.22;5093578;28;20280;-36
2021/12/13 09:55:38;;;;;;;;;;;;;;;8.54;100.00;102762.91;5093366;28;19919;-36
2021/12/13 09:58:04;;;;;;;;;;;;;;;8.55;100.00;102765.44;5093362;28;20264;-36
2021/12/13 10:00:47;;;;;;;;;;;;;;;8.56;100.00;102763.59;5093202;28;19912;-36
2021/12/13 10:03:17;;;;;;;;;;;;;;;8.58;100.00;102765.09;5093262;28;19919;-36
2021/12/13 10:05:47;;;;;;;;;;;;;;;8.59;100.00;102760.53;5093780;28;20375;-36
2021/12/13 10:08:18;;;;;;;;;;;;;;;8.58;100.00;102750.75;5093508;28;19912;-36
2021/12/13 10:10:46;;;;;;;;;;;;;;;8.57;100.00;102755.31;5093953;28;19948;-36
2021/12/13 10:13:14;;;;;;;;;;;;;;;8.60;100.00;102757.69;5093068;28;19912;-36
2021/12/13 10:15:48;;;;;;;;;;;;;;;8.62;100.00;102754.81;5093601;28;19911;-36
2021/12/13 10:18:17;;;;;;;;;;;;;;;8.62;100.00;102754.81;5092779;28;20379;-36
2021/12/13 10:20:48;;;;;;;;;;;;;;;8.62;100.00;102738.63;5093783;28;19912;-36
2021/12/13 10:23:16;;;;;;;;;;;;;;;8.63;100.00;102743.84;5093421;28;19919;-36
2021/12/13 10:25:44;;;;;;;;;;;;;;;8.64;100.00;102740.16;5093463;28;20333;-35
2021/12/13 10:28:12;;;;;;;;;;;;;;;8.64;100.00;102742.00;5094708;28;19912;-35
2021/12/13 10:30:48;;;;;;;;;;;;;;;8.63;100.00;102741.13;5097013;28;19912;-35
2021/12/13 10:33:15;;;;;;;;;;;;;;;8.66;100.00;102740.81;5096935;28;19912;-35
2021/12/13 10:35:42;;;;;;;;;;;;;;;8.66;100.00;102734.56;5097420;28;19919;-36
2021/12/13 10:38:12;;;;;;;;;;;;;;;8.67;100.00;102733.56;5096440;28;20382;-35
2021/12/13 10:40:43;;;;;;;;;;;;;;;8.65;100.00;102733.72;5078766;28;20401;-35
2021/12/13 10:43:39;;;;;;;;;;;;;;;8.67;100.00;102736.25;5078517;28;19919;-35
2021/12/13 10:46:11;;;;;;;;;;;;;;;8.69;100.00;102745.03;5014644;28;19915;-35
2021/12/13 10:48:44;;;;;;;;;;;;;;;8.68;100.00;102738.75;5014702;28;19913;-35
2021/12/13 10:51:11;;;;;;;;;;;;;;;8.69;100.00;102743.16;5015041;28;20008;-35
2021/12/13 10:53:38;;;;;;;;;;;;;;;8.67;100.00;102747.03;5014282;28;19953;-35
2021/12/13 10:56:09;;;;;;;;;;;;;;;8.67;100.00;102734.38;5014081;28;20000;-35
2021/12/13 10:58:39;;;;;;;;;;;;;;;8.68;100.00;102736.06;5014879;28;20008;-35
2021/12/13 11:01:09;;;;;;;;;;;;;;;8.67;100.00;102738.94;5014463;28;20004;-35
2021/12/13 11:03:36;;;;;;;;;;;;;;;8.67;100.00;102730.84;5014196;28;20369;-35
2021/12/13 11:06:04;;;;;;;;;;;;;;;8.66;100.00;102732.72;5013853;28;19920;-36
2021/12/13 11:08:30;;;;;;;;;;;;;;;8.68;100.00;102735.22;5013849;28;20004;-35
2021/12/13 11:11:04;;;;;;;;;;;;;;;8.69;100.00;102728.84;5014422;28;19952;-35
2021/12/13 11:13:31;;;;;;;;;;;;;;;8.70;100.00;102730.53;5013852;28;20115;-35
2021/12/13 11:15:59;;;;;;;;;;;;;;;8.71;100.00;102721.41;5014156;28;19933;-35
2021/12/13 11:18:28;;;;;;;;;;;;;;;8.70;100.00;102719.72;5013510;28;20016;-35
2021/12/13 11:20:55;;;;;;;;;;;;;;;8.70;100.00;102722.44;5014127;28;19913;-36
2021/12/13 11:23:21;;;;;;;;;;;;;;;8.70;100.00;102727.81;5086370;28;19931;-36
2021/12/13 11:25:50;;;;;;;;;;;;;;;8.71;100.00;102716.00;5096657;28;20256;-37
2021/12/13 11:28:16;;;;;;;;;;;;;;;8.72;100.00;102717.69;5095722;28;19920;-35
2021/12/13 11:30:42;;;;;;;;;;;;;;;8.73;100.00;102733.69;5095850;28;19912;-36
2021/12/13 11:33:10;;;;;;;;;;;;;;;8.74;100.00;102731.88;5095380;28;19935;-36
2021/12/13 11:35:50;;;;;;;;;;;;;;;8.75;100.00;102728.16;5095353;28;19912;-35
2021/12/13 11:38:34;;;;;;;;;;;;;;;8.76;100.00;102729.81;5095610;28;19931;-35
2021/12/13 11:41:18;;;;;;;;;;;;;;;8.78;100.00;102725.09;5095512;28;19919;-35
2021/12/13 11:43:55;;;;;;;;;;;;;;;8.78;100.00;102722.38;5095398;28;20371;-35
2021/12/13 11:46:27;;;;;;;;;;;;;;;8.76;100.00;102724.44;5077017;28;20260;-35
2021/12/13 11:49:22;;;;;;;;;;;;;;;8.76;100.00;102721.72;5095311;28;19920;-35
2021/12/13 11:51:55;;;;;;;;;;;;;;;8.75;100.00;102720.91;5096149;28;19974;-35
2021/12/13 11:54:22;;;;;;;;;;;;;;;8.75;100.00;102717.34;5095662;28;19919;-35
2021/12/13 11:57:06;;;;;;;;;;;;;;;8.73;100.00;102714.81;5095477;28;19951;-35
2021/12/13 11:59:38;;;;;;;;;;;;;;;8.71;100.00;102716.00;5095458;28;20031;-35
2021/12/13 12:02:10;;;;;;;;;;;;;;;8.74;100.00;102712.97;5095136;28;19919;-35
2021/12/13 12:04:54;;;;;;;;;;;;;;;8.72;100.00;102707.75;5095877;28;19934;-35
2021/12/13 12:07:38;;;;;;;;;;;;;;;8.73;100.00;102709.41;5094627;28;20280;-35
2021/12/13 12:10:21;;;;;;;;;;;;;;;8.75;100.00;102706.56;5094764;28;19912;-35
2021/12/13 12:13:05;;;;;;;;;;;;;;;8.77;100.00;102709.91;5094968;28;19912;-35
2021/12/13 12:15:32;;;;;;;;;;;;;;;8.76;100.00;102705.53;5095138;28;19953;-35
2021/12/13 12:18:00;;;;;;;;;;;;;;;8.79;100.00;102710.59;5094765;28;19912;-35
2021/12/13 12:20:27;;;;;;;;;;;;;;;8.78;100.00;102700.81;5094679;28;19919;-35
2021/12/13 12:22:52;;;;;;;;;;;;;;;8.80;100.00;102708.75;5095048;28;19912;-35
2021/12/13 12:25:20;;;;;;;;;;;;;;;8.79;100.00;102702.50;5095046;28;19921;-35
2021/12/13 12:27:46;;;;;;;;;;;;;;;8.79;100.00;102707.06;5094629;28;19916;-35
2021/12/13 12:30:14;;;;;;;;;;;;;;;8.80;100.00;102709.59;5094546;28;20336;-35
2021/12/13 12:32:41;;;;;;;;;;;;;;;8.81;100.00;102705.88;5094963;28;19935;-35
2021/12/13 12:35:11;;;;;;;;;;;;;;;8.81;100.00;102705.03;5094631;28;19919;-35
2021/12/13 12:38:12;;;;;;;;;;;;;;;8.83;100.00;102708.38;5094596;28;19915;-35
2021/12/13 12:40:45;;;;;;;;;;;;;;;8.82;100.00;102712.94;5094392;28;20102;-34
2021/12/13 12:43:11;;;;;;;;;;;;;;;8.82;100.00;102712.09;5094472;28;19911;-34
2021/12/13 12:45:42;;;;;;;;;;;;;;;8.79;100.00;102713.31;5094402;28;19912;-34
2021/12/13 12:48:19;;;;;;;;;;;;;;;8.80;100.00;102701.50;5094804;28;20011;-34
2021/12/13 12:50:58;;;;;;;;;;;;;;;8.77;100.00;102704.53;5093790;28;19912;-35
2021/12/13 12:53:31;;;;;;;;;;;;;;;8.76;100.00;102709.09;5094093;28;20299;-35
2021/12/13 12:55:58;;;;;;;;;;;;;;;8.76;100.00;102713.63;5094460;28;19912;-35
2021/12/13 12:58:29;;;;;;;;;;;;;;;8.77;100.00;102720.72;5094446;28;19959;-35